Time,TemperatureF,DewpointF,PressureIn,WindDirection,WindDirectionDegrees,WindSpeedMPH,WindSpeedGustMPH,Humidity,HourlyPrecipIn,Conditions,Clouds,dailyrainin,SoftwareType,DateUTC
2013-11-08 00:00:00,43.1,34.3,30.16,NE,45,0.0,-999.0,71,0.00,,,0.00,Wunderground v.1.15,2013-11-08 05:00:00,
2013-11-08 00:05:00,43.1,34.3,30.16,NE,45,0.0,-999.0,71,0.00,,,0.00,Wunderground v.1.15,2013-11-08 05:05:00,
2013-11-08 00:10:00,43.1,34.3,30.16,NE,45,0.0,-999.0,71,0.00,,,0.00,Wunderground v.1.15,2013-11-08 05:10:00,
2013-11-08 00:15:00,43.1,34.3,30.16,NE,45,0.0,-999.0,71,0.00,,,0.00,Wunderground v.1.15,2013-11-08 05:15:00,
2013-11-08 00:20:00,43.1,34.3,30.16,NE,45,0.0,-999.0,71,0.00,,,0.00,Wunderground v.1.15,2013-11-08 05:20:00,
2013-11-08 00:25:00,43.1,34.3,30.16,NE,45,0.0,-999.0,71,0.00,,,0.00,Wunderground v.1.15,2013-11-08 05:25:00,
2013-11-08 00:30:00,43.1,34.3,30.16,NE,45,0.0,-999.0,71,0.00,,,0.00,Wunderground v.1.15,2013-11-08 05:30:00,
2013-11-08 00:35:00,43.1,34.3,30.16,NE,45,0.0,-999.0,71,0.00,,,0.00,Wunderground v.1.15,2013-11-08 05:35:00,
2013-11-08 00:40:00,43.1,34.3,30.16,NE,45,0.0,-999.0,71,0.00,,,0.00,Wunderground v.1.15,2013-11-08 05:40:00,
2013-11-08 00:45:00,42.5,34.5,30.17,NE,45,0.0,-999.0,73,0.00,,,0.00,Wunderground v.1.15,2013-11-08 05:45:00,
2013-11-08 00:50:00,42.5,34.5,30.17,NE,45,0.0,-999.0,73,0.00,,,0.00,Wunderground v.1.15,2013-11-08 05:50:00,
2013-11-08 00:55:00,42.5,34.5,30.17,NE,45,0.0,-999.0,73,0.00,,,0.00,Wunderground v.1.15,2013-11-08 05:55:00,
2013-11-08 01:00:00,42.5,34.5,30.17,NE,45,0.0,-999.0,73,0.00,,,0.00,Wunderground v.1.15,2013-11-08 06:00:00,
2013-11-08 01:05:00,42.5,34.5,30.17,NE,45,0.0,-999.0,73,0.00,,,0.00,Wunderground v.1.15,2013-11-08 06:05:00,
2013-11-08 01:10:00,42.5,34.5,30.17,NE,45,0.0,-999.0,73,0.00,,,0.00,Wunderground v.1.15,2013-11-08 06:10:00,
2013-11-08 01:15:00,42.2,34.2,30.17,NE,45,0.0,-999.0,73,0.00,,,0.00,Wunderground v.1.15,2013-11-08 06:15:00,
2013-11-08 01:20:00,42.2,34.2,30.17,NE,45,0.0,-999.0,73,0.00,,,0.00,Wunderground v.1.15,2013-11-08 06:20:00,
2013-11-08 01:25:00,42.2,34.2,30.17,NE,45,0.0,-999.0,73,0.00,,,0.00,Wunderground v.1.15,2013-11-08 06:25:00,
2013-11-08 01:30:00,42.2,34.2,30.17,NE,45,0.0,-999.0,73,0.00,,,0.00,Wunderground v.1.15,2013-11-08 06:30:00,
2013-11-08 01:35:00,42.2,34.2,30.17,NE,45,0.0,-999.0,73,0.00,,,0.00,Wunderground v.1.15,2013-11-08 06:35:00,
2013-11-08 01:40:00,42.2,34.2,30.17,NE,45,0.0,-999.0,73,0.00,,,0.00,Wunderground v.1.15,2013-11-08 06:40:00,
2013-11-08 01:45:00,42.6,33.9,30.18,NE,45,0.0,-999.0,71,0.00,,,0.00,Wunderground v.1.15,2013-11-08 06:45:00,
2013-11-08 01:50:00,42.6,33.9,30.18,NE,45,0.0,-999.0,71,0.00,,,0.00,Wunderground v.1.15,2013-11-08 06:50:00,
2013-11-08 01:55:00,42.6,33.9,30.18,NE,45,0.0,-999.0,71,0.00,,,0.00,Wunderground v.1.15,2013-11-08 06:55:00,
2013-11-08 02:00:00,42.6,33.9,30.18,NE,45,0.0,-999.0,71,0.00,,,0.00,Wunderground v.1.15,2013-11-08 07:00:00,
2013-11-08 02:05:00,42.6,33.9,30.18,NE,45,0.0,-999.0,71,0.00,,,0.00,Wunderground v.1.15,2013-11-08 07:05:00,
2013-11-08 02:10:00,42.6,33.9,30.18,NE,45,0.0,-999.0,71,0.00,,,0.00,Wunderground v.1.15,2013-11-08 07:10:00,
2013-11-08 02:15:00,42.4,33.7,30.19,NE,45,0.0,-999.0,71,0.00,,,0.00,Wunderground v.1.15,2013-11-08 07:15:00,
2013-11-08 02:20:00,42.4,33.7,30.19,NE,45,0.0,-999.0,71,0.00,,,0.00,Wunderground v.1.15,2013-11-08 07:20:00,
2013-11-08 02:25:00,42.4,33.7,30.19,NE,45,0.0,-999.0,71,0.00,,,0.00,Wunderground v.1.15,2013-11-08 07:25:00,
2013-11-08 02:30:00,42.4,33.7,30.19,NE,45,0.0,-999.0,71,0.00,,,0.00,Wunderground v.1.15,2013-11-08 07:30:00,
2013-11-08 02:35:00,42.4,33.7,30.19,NE,45,0.0,-999.0,71,0.00,,,0.00,Wunderground v.1.15,2013-11-08 07:35:00,
2013-11-08 02:40:00,42.4,33.7,30.19,NE,45,0.0,-999.0,71,0.00,,,0.00,Wunderground v.1.15,2013-11-08 07:40:00,
2013-11-08 02:45:00,41.8,33.1,30.20,ENE,68,0.0,-999.0,71,0.00,,,0.00,Wunderground v.1.15,2013-11-08 07:45:00,
2013-11-08 02:50:00,41.8,33.1,30.20,ENE,68,0.0,-999.0,71,0.00,,,0.00,Wunderground v.1.15,2013-11-08 07:50:00,
2013-11-08 02:55:00,41.8,33.1,30.20,ENE,68,0.0,-999.0,71,0.00,,,0.00,Wunderground v.1.15,2013-11-08 07:55:00,
2013-11-08 03:00:00,41.8,33.1,30.20,ENE,68,0.0,-999.0,71,0.00,,,0.00,Wunderground v.1.15,2013-11-08 08:00:00,
2013-11-08 03:05:00,41.8,33.1,30.20,ENE,68,0.0,-999.0,71,0.00,,,0.00,Wunderground v.1.15,2013-11-08 08:05:00,
2013-11-08 03:10:00,41.8,33.1,30.20,ENE,68,0.0,-999.0,71,0.00,,,0.00,Wunderground v.1.15,2013-11-08 08:10:00,
2013-11-08 03:15:00,41.5,32.8,30.20,NE,45,0.0,-999.0,71,0.00,,,0.00,Wunderground v.1.15,2013-11-08 08:15:00,
2013-11-08 03:20:00,41.5,32.8,30.20,NE,45,0.0,-999.0,71,0.00,,,0.00,Wunderground v.1.15,2013-11-08 08:20:00,
2013-11-08 03:25:00,41.5,32.8,30.20,NE,45,0.0,-999.0,71,0.00,,,0.00,Wunderground v.1.15,2013-11-08 08:25:00,
2013-11-08 03:30:00,41.5,32.8,30.20,NE,45,0.0,-999.0,71,0.00,,,0.00,Wunderground v.1.15,2013-11-08 08:30:00,
2013-11-08 03:35:00,41.5,32.8,30.20,NE,45,0.0,-999.0,71,0.00,,,0.00,Wunderground v.1.15,2013-11-08 08:35:00,
2013-11-08 03:40:00,41.5,32.8,30.20,NE,45,0.0,-999.0,71,0.00,,,0.00,Wunderground v.1.15,2013-11-08 08:40:00,
2013-11-08 03:50:00,40.9,32.9,30.21,NE,45,0.0,-999.0,73,0.00,,,0.00,Wunderground v.1.15,2013-11-08 08:50:00,
2013-11-08 03:55:00,40.9,32.9,30.21,NE,45,0.0,-999.0,73,0.00,,,0.00,Wunderground v.1.15,2013-11-08 08:55:00,
2013-11-08 04:00:00,40.9,32.9,30.21,NE,45,0.0,-999.0,73,0.00,,,0.00,Wunderground v.1.15,2013-11-08 09:00:00,
2013-11-08 04:05:00,40.9,32.9,30.21,NE,45,0.0,-999.0,73,0.00,,,0.00,Wunderground v.1.15,2013-11-08 09:05:00,
2013-11-08 04:10:00,40.9,32.9,30.21,NE,45,0.0,-999.0,73,0.00,,,0.00,Wunderground v.1.15,2013-11-08 09:10:00,
2013-11-08 04:20:00,40.1,32.5,30.22,NE,45,0.0,-999.0,74,0.00,,,0.00,Wunderground v.1.15,2013-11-08 09:20:00,
2013-11-08 04:25:00,40.1,32.5,30.22,NE,45,0.0,-999.0,74,0.00,,,0.00,Wunderground v.1.15,2013-11-08 09:25:00,
2013-11-08 04:30:00,40.1,32.5,30.22,NE,45,0.0,-999.0,74,0.00,,,0.00,Wunderground v.1.15,2013-11-08 09:30:00,
2013-11-08 04:35:00,40.1,32.5,30.22,NE,45,0.0,-999.0,74,0.00,,,0.00,Wunderground v.1.15,2013-11-08 09:35:00,
2013-11-08 04:40:00,40.1,32.5,30.22,NE,45,0.0,-999.0,74,0.00,,,0.00,Wunderground v.1.15,2013-11-08 09:40:00,
2013-11-08 04:45:00,39.2,31.9,30.23,NE,45,0.0,-999.0,75,0.00,,,0.00,Wunderground v.1.15,2013-11-08 09:45:00,
2013-11-08 04:50:00,39.2,31.9,30.23,NE,45,0.0,-999.0,75,0.00,,,0.00,Wunderground v.1.15,2013-11-08 09:50:00,
2013-11-08 04:55:00,39.2,31.9,30.23,NE,45,0.0,-999.0,75,0.00,,,0.00,Wunderground v.1.15,2013-11-08 09:55:00,
2013-11-08 05:00:00,39.2,31.9,30.23,NE,45,0.0,-999.0,75,0.00,,,0.00,Wunderground v.1.15,2013-11-08 10:00:00,
2013-11-08 05:05:00,39.2,31.9,30.23,NE,45,0.0,-999.0,75,0.00,,,0.00,Wunderground v.1.15,2013-11-08 10:05:00,
2013-11-08 05:10:00,39.2,31.9,30.23,NE,45,0.0,-999.0,75,0.00,,,0.00,Wunderground v.1.15,2013-11-08 10:10:00,
2013-11-08 05:15:00,38.2,31.6,30.24,N/A,-737280,0.0,-999.0,77,0.00,,,0.00,Wunderground v.1.15,2013-11-08 10:15:00,
2013-11-08 05:20:00,38.2,31.6,30.24,N/A,-737280,0.0,-999.0,77,0.00,,,0.00,Wunderground v.1.15,2013-11-08 10:20:00,
2013-11-08 05:25:00,38.2,31.6,30.24,N/A,-737280,0.0,-999.0,77,0.00,,,0.00,Wunderground v.1.15,2013-11-08 10:25:00,
2013-11-08 05:30:00,38.2,31.6,30.24,N/A,-737280,0.0,-999.0,77,0.00,,,0.00,Wunderground v.1.15,2013-11-08 10:30:00,
2013-11-08 05:35:00,38.2,31.6,30.24,N/A,-737280,0.0,-999.0,77,0.00,,,0.00,Wunderground v.1.15,2013-11-08 10:35:00,
2013-11-08 05:40:00,38.2,31.6,30.24,N/A,-737280,0.0,-999.0,77,0.00,,,0.00,Wunderground v.1.15,2013-11-08 10:40:00,
2013-11-08 05:45:00,37.6,31.7,30.25,N/A,-737280,0.0,-999.0,79,0.00,,,0.00,Wunderground v.1.15,2013-11-08 10:45:00,
2013-11-08 05:50:00,37.6,31.7,30.25,N/A,-737280,0.0,-999.0,79,0.00,,,0.00,Wunderground v.1.15,2013-11-08 10:50:00,
2013-11-08 05:55:00,37.6,31.7,30.25,N/A,-737280,0.0,-999.0,79,0.00,,,0.00,Wunderground v.1.15,2013-11-08 10:55:00,
2013-11-08 06:00:00,37.6,31.7,30.25,N/A,-737280,0.0,-999.0,79,0.00,,,0.00,Wunderground v.1.15,2013-11-08 11:00:00,
2013-11-08 06:05:00,37.6,31.7,30.25,N/A,-737280,0.0,-999.0,79,0.00,,,0.00,Wunderground v.1.15,2013-11-08 11:05:00,
2013-11-08 06:10:00,37.6,31.7,30.25,N/A,-737280,0.0,-999.0,79,0.00,,,0.00,Wunderground v.1.15,2013-11-08 11:10:00,
2013-11-08 06:15:00,36.8,31.2,30.26,NE,45,0.0,-999.0,80,0.00,,,0.00,Wunderground v.1.15,2013-11-08 11:15:00,
2013-11-08 06:20:00,36.8,31.2,30.26,NE,45,0.0,-999.0,80,0.00,,,0.00,Wunderground v.1.15,2013-11-08 11:20:00,
2013-11-08 06:25:00,36.8,31.2,30.26,NE,45,0.0,-999.0,80,0.00,,,0.00,Wunderground v.1.15,2013-11-08 11:25:00,
2013-11-08 06:30:00,36.8,31.2,30.26,NE,45,0.0,-999.0,80,0.00,,,0.00,Wunderground v.1.15,2013-11-08 11:30:00,
2013-11-08 06:35:00,36.8,31.2,30.26,NE,45,0.0,-999.0,80,0.00,,,0.00,Wunderground v.1.15,2013-11-08 11:35:00,
2013-11-08 06:40:00,36.8,31.2,30.26,NE,45,0.0,-999.0,80,0.00,,,0.00,Wunderground v.1.15,2013-11-08 11:40:00,
2013-11-08 06:45:00,37.3,30.7,30.27,NE,45,0.0,-999.0,77,0.00,,,0.00,Wunderground v.1.15,2013-11-08 11:45:00,
2013-11-08 06:50:00,37.3,30.7,30.27,NE,45,0.0,-999.0,77,0.00,,,0.00,Wunderground v.1.15,2013-11-08 11:50:00,
2013-11-08 06:55:00,37.3,30.7,30.27,NE,45,0.0,-999.0,77,0.00,,,0.00,Wunderground v.1.15,2013-11-08 11:55:00,
2013-11-08 07:00:00,37.3,30.7,30.27,NE,45,0.0,-999.0,77,0.00,,,0.00,Wunderground v.1.15,2013-11-08 12:00:00,
2013-11-08 07:05:00,37.3,30.7,30.27,NE,45,0.0,-999.0,77,0.00,,,0.00,Wunderground v.1.15,2013-11-08 12:05:00,
2013-11-08 07:10:00,37.3,30.7,30.27,NE,45,0.0,-999.0,77,0.00,,,0.00,Wunderground v.1.15,2013-11-08 12:10:00,
2013-11-08 07:15:00,37.1,31.2,30.28,NE,45,0.0,-999.0,79,0.00,,,0.00,Wunderground v.1.15,2013-11-08 12:15:00,
2013-11-08 07:20:00,37.1,31.2,30.28,NE,45,0.0,-999.0,79,0.00,,,0.00,Wunderground v.1.15,2013-11-08 12:20:00,
2013-11-08 07:25:00,37.1,31.2,30.28,NE,45,0.0,-999.0,79,0.00,,,0.00,Wunderground v.1.15,2013-11-08 12:25:00,
2013-11-08 07:30:00,37.1,31.2,30.28,NE,45,0.0,-999.0,79,0.00,,,0.00,Wunderground v.1.15,2013-11-08 12:30:00,
2013-11-08 07:35:00,37.1,31.2,30.28,NE,45,0.0,-999.0,79,0.00,,,0.00,Wunderground v.1.15,2013-11-08 12:35:00,
2013-11-08 07:40:00,37.1,31.2,30.28,NE,45,0.0,-999.0,79,0.00,,,0.00,Wunderground v.1.15,2013-11-08 12:40:00,
2013-11-08 07:45:00,38.4,32.1,30.29,N/A,-737280,0.0,-999.0,78,0.00,,,0.00,Wunderground v.1.15,2013-11-08 12:45:00,
2013-11-08 07:50:00,38.4,32.1,30.29,N/A,-737280,0.0,-999.0,78,0.00,,,0.00,Wunderground v.1.15,2013-11-08 12:50:00,
2013-11-08 07:55:00,38.4,32.1,30.29,N/A,-737280,0.0,-999.0,78,0.00,,,0.00,Wunderground v.1.15,2013-11-08 12:55:00,
2013-11-08 08:00:00,38.4,32.1,30.29,N/A,-737280,0.0,-999.0,78,0.00,,,0.00,Wunderground v.1.15,2013-11-08 13:00:00,
2013-11-08 08:05:00,38.4,32.1,30.29,N/A,-737280,0.0,-999.0,78,0.00,,,0.00,Wunderground v.1.15,2013-11-08 13:05:00,
2013-11-08 08:10:00,38.4,32.1,30.29,N/A,-737280,0.0,-999.0,78,0.00,,,0.00,Wunderground v.1.15,2013-11-08 13:10:00,
2013-11-08 08:15:00,41.6,33.2,30.30,SE,135,0.0,-999.0,72,0.00,,,0.00,Wunderground v.1.15,2013-11-08 13:15:00,
2013-11-08 08:20:00,41.6,33.2,30.30,SE,135,0.0,-999.0,72,0.00,,,0.00,Wunderground v.1.15,2013-11-08 13:20:00,
2013-11-08 08:25:00,41.6,33.2,30.30,SE,135,0.0,-999.0,72,0.00,,,0.00,Wunderground v.1.15,2013-11-08 13:25:00,
2013-11-08 08:30:00,41.6,33.2,30.30,SE,135,0.0,-999.0,72,0.00,,,0.00,Wunderground v.1.15,2013-11-08 13:30:00,
2013-11-08 08:35:00,41.6,33.2,30.30,SE,135,0.0,-999.0,72,0.00,,,0.00,Wunderground v.1.15,2013-11-08 13:35:00,
2013-11-08 08:40:00,41.6,33.2,30.30,SE,135,0.0,-999.0,72,0.00,,,0.00,Wunderground v.1.15,2013-11-08 13:40:00,
2013-11-08 08:45:00,46.3,34.8,30.31,NE,45,0.0,-999.0,64,0.00,,,0.00,Wunderground v.1.15,2013-11-08 13:45:00,
2013-11-08 08:50:00,46.3,34.8,30.31,NE,45,0.0,-999.0,64,0.00,,,0.00,Wunderground v.1.15,2013-11-08 13:50:00,
2013-11-08 08:55:00,46.3,34.8,30.31,NE,45,0.0,-999.0,64,0.00,,,0.00,Wunderground v.1.15,2013-11-08 13:55:00,
2013-11-08 09:00:00,46.3,34.8,30.31,NE,45,0.0,-999.0,64,0.00,,,0.00,Wunderground v.1.15,2013-11-08 14:00:00,
2013-11-08 09:05:00,46.3,34.8,30.31,NE,45,0.0,-999.0,64,0.00,,,0.00,Wunderground v.1.15,2013-11-08 14:05:00,
2013-11-08 09:10:00,46.3,34.8,30.31,NE,45,0.0,-999.0,64,0.00,,,0.00,Wunderground v.1.15,2013-11-08 14:10:00,
2013-11-08 09:15:00,51.5,34.4,30.31,ENE,68,0.0,-999.0,52,0.00,,,0.00,Wunderground v.1.15,2013-11-08 14:15:00,
2013-11-08 09:20:00,51.5,34.4,30.31,ENE,68,0.0,-999.0,52,0.00,,,0.00,Wunderground v.1.15,2013-11-08 14:20:00,
2013-11-08 09:25:00,51.5,34.4,30.31,ENE,68,0.0,-999.0,52,0.00,,,0.00,Wunderground v.1.15,2013-11-08 14:25:00,
2013-11-08 09:30:00,51.5,34.4,30.31,ENE,68,0.0,-999.0,52,0.00,,,0.00,Wunderground v.1.15,2013-11-08 14:30:00,
2013-11-08 09:35:00,51.5,34.4,30.31,ENE,68,0.0,-999.0,52,0.00,,,0.00,Wunderground v.1.15,2013-11-08 14:35:00,
2013-11-08 09:40:00,51.5,34.4,30.31,ENE,68,0.0,-999.0,52,0.00,,,0.00,Wunderground v.1.15,2013-11-08 14:40:00,
2013-11-08 09:45:00,51.3,34.7,30.32,WSW,248,2.0,-999.0,53,0.00,,,0.00,Wunderground v.1.15,2013-11-08 14:45:00,
2013-11-08 09:50:00,51.3,34.7,30.32,WSW,248,2.0,-999.0,53,0.00,,,0.00,Wunderground v.1.15,2013-11-08 14:50:00,
2013-11-08 09:55:00,51.3,34.7,30.32,WSW,248,2.0,-999.0,53,0.00,,,0.00,Wunderground v.1.15,2013-11-08 14:55:00,
2013-11-08 10:00:00,51.3,34.7,30.32,WSW,248,2.0,-999.0,53,0.00,,,0.00,Wunderground v.1.15,2013-11-08 15:00:00,
2013-11-08 10:05:00,51.3,34.7,30.32,WSW,248,2.0,-999.0,53,0.00,,,0.00,Wunderground v.1.15,2013-11-08 15:05:00,
2013-11-08 10:10:00,51.3,34.7,30.32,WSW,248,2.0,-999.0,53,0.00,,,0.00,Wunderground v.1.15,2013-11-08 15:10:00,
2013-11-08 10:15:00,53.0,33.8,30.31,SW,225,2.0,-999.0,48,0.00,,,0.00,Wunderground v.1.15,2013-11-08 15:15:00,
2013-11-08 10:20:00,53.0,33.8,30.31,SW,225,2.0,-999.0,48,0.00,,,0.00,Wunderground v.1.15,2013-11-08 15:20:00,
2013-11-08 10:25:00,53.0,33.8,30.31,SW,225,2.0,-999.0,48,0.00,,,0.00,Wunderground v.1.15,2013-11-08 15:25:00,
2013-11-08 10:30:00,53.0,33.8,30.31,SW,225,2.0,-999.0,48,0.00,,,0.00,Wunderground v.1.15,2013-11-08 15:30:00,
2013-11-08 10:35:00,53.0,33.8,30.31,SW,225,2.0,-999.0,48,0.00,,,0.00,Wunderground v.1.15,2013-11-08 15:35:00,
2013-11-08 10:40:00,53.0,33.8,30.31,SW,225,2.0,-999.0,48,0.00,,,0.00,Wunderground v.1.15,2013-11-08 15:40:00,
2013-11-08 10:45:00,54.2,31.6,30.31,SW,225,2.0,-999.0,42,0.00,,,0.00,Wunderground v.1.15,2013-11-08 15:45:00,
2013-11-08 10:50:00,54.2,31.6,30.31,SW,225,2.0,-999.0,42,0.00,,,0.00,Wunderground v.1.15,2013-11-08 15:50:00,
2013-11-08 10:55:00,54.2,31.6,30.31,SW,225,2.0,-999.0,42,0.00,,,0.00,Wunderground v.1.15,2013-11-08 15:55:00,
2013-11-08 11:00:00,54.2,31.6,30.31,SW,225,2.0,-999.0,42,0.00,,,0.00,Wunderground v.1.15,2013-11-08 16:00:00,
2013-11-08 11:05:00,54.2,31.6,30.31,SW,225,2.0,-999.0,42,0.00,,,0.00,Wunderground v.1.15,2013-11-08 16:05:00,
2013-11-08 11:10:00,54.2,31.6,30.31,SW,225,2.0,-999.0,42,0.00,,,0.00,Wunderground v.1.15,2013-11-08 16:10:00,
2013-11-08 11:15:00,53.3,32.5,30.31,WSW,248,2.0,-999.0,45,0.00,,,0.00,Wunderground v.1.15,2013-11-08 16:15:00,
2013-11-08 11:20:00,53.3,32.5,30.31,WSW,248,2.0,-999.0,45,0.00,,,0.00,Wunderground v.1.15,2013-11-08 16:20:00,
2013-11-08 11:25:00,53.3,32.5,30.31,WSW,248,2.0,-999.0,45,0.00,,,0.00,Wunderground v.1.15,2013-11-08 16:25:00,
2013-11-08 11:30:00,53.3,32.5,30.31,WSW,248,2.0,-999.0,45,0.00,,,0.00,Wunderground v.1.15,2013-11-08 16:30:00,
2013-11-08 11:35:00,53.3,32.5,30.31,WSW,248,2.0,-999.0,45,0.00,,,0.00,Wunderground v.1.15,2013-11-08 16:35:00,
2013-11-08 11:40:00,53.3,32.5,30.31,WSW,248,2.0,-999.0,45,0.00,,,0.00,Wunderground v.1.15,2013-11-08 16:40:00,
2013-11-08 11:45:00,54.8,34.9,30.30,WSW,248,1.0,-999.0,47,0.00,,,0.00,Wunderground v.1.15,2013-11-08 16:45:00,
2013-11-08 11:50:00,54.8,34.9,30.30,WSW,248,1.0,-999.0,47,0.00,,,0.00,Wunderground v.1.15,2013-11-08 16:50:00,
2013-11-08 11:55:00,54.8,34.9,30.30,WSW,248,1.0,-999.0,47,0.00,,,0.00,Wunderground v.1.15,2013-11-08 16:55:00,
2013-11-08 12:00:00,54.8,34.9,30.30,WSW,248,1.0,-999.0,47,0.00,,,0.00,Wunderground v.1.15,2013-11-08 17:00:00,
2013-11-08 12:05:00,54.8,34.9,30.30,WSW,248,1.0,-999.0,47,0.00,,,0.00,Wunderground v.1.15,2013-11-08 17:05:00,
2013-11-08 12:10:00,54.8,34.9,30.30,WSW,248,1.0,-999.0,47,0.00,,,0.00,Wunderground v.1.15,2013-11-08 17:10:00,
2013-11-08 12:15:00,54.9,31.0,30.28,WSW,248,2.0,-999.0,40,0.00,,,0.00,Wunderground v.1.15,2013-11-08 17:15:00,
2013-11-08 12:20:00,54.9,31.0,30.28,WSW,248,2.0,-999.0,40,0.00,,,0.00,Wunderground v.1.15,2013-11-08 17:20:00,
2013-11-08 12:25:00,54.9,31.0,30.28,WSW,248,2.0,-999.0,40,0.00,,,0.00,Wunderground v.1.15,2013-11-08 17:25:00,
2013-11-08 12:30:00,54.9,31.0,30.28,WSW,248,2.0,-999.0,40,0.00,,,0.00,Wunderground v.1.15,2013-11-08 17:30:00,
2013-11-08 12:35:00,54.9,31.0,30.28,WSW,248,2.0,-999.0,40,0.00,,,0.00,Wunderground v.1.15,2013-11-08 17:35:00,
2013-11-08 12:40:00,54.9,31.0,30.28,WSW,248,2.0,-999.0,40,0.00,,,0.00,Wunderground v.1.15,2013-11-08 17:40:00,
2013-11-08 12:45:00,55.8,32.4,30.27,WSW,248,3.0,-999.0,41,0.00,,,0.00,Wunderground v.1.15,2013-11-08 17:45:00,
2013-11-08 12:50:00,55.8,32.4,30.27,WSW,248,3.0,-999.0,41,0.00,,,0.00,Wunderground v.1.15,2013-11-08 17:50:00,
2013-11-08 12:55:00,55.8,32.4,30.27,WSW,248,3.0,-999.0,41,0.00,,,0.00,Wunderground v.1.15,2013-11-08 17:55:00,
2013-11-08 13:00:00,55.8,32.4,30.27,WSW,248,3.0,-999.0,41,0.00,,,0.00,Wunderground v.1.15,2013-11-08 18:00:00,
2013-11-08 13:05:00,55.8,32.4,30.27,WSW,248,3.0,-999.0,41,0.00,,,0.00,Wunderground v.1.15,2013-11-08 18:05:00,
2013-11-08 13:10:00,55.8,32.4,30.27,WSW,248,3.0,-999.0,41,0.00,,,0.00,Wunderground v.1.15,2013-11-08 18:10:00,
2013-11-08 13:15:00,55.3,29.4,30.26,WSW,248,3.0,-999.0,37,0.00,,,0.00,Wunderground v.1.15,2013-11-08 18:15:00,
2013-11-08 13:20:00,55.3,29.4,30.26,WSW,248,3.0,-999.0,37,0.00,,,0.00,Wunderground v.1.15,2013-11-08 18:20:00,
2013-11-08 13:25:00,55.3,29.4,30.26,WSW,248,3.0,-999.0,37,0.00,,,0.00,Wunderground v.1.15,2013-11-08 18:25:00,
2013-11-08 13:30:00,55.3,29.4,30.26,WSW,248,3.0,-999.0,37,0.00,,,0.00,Wunderground v.1.15,2013-11-08 18:30:00,
2013-11-08 13:35:00,55.3,29.4,30.26,WSW,248,3.0,-999.0,37,0.00,,,0.00,Wunderground v.1.15,2013-11-08 18:35:00,
2013-11-08 13:40:00,55.3,29.4,30.26,WSW,248,3.0,-999.0,37,0.00,,,0.00,Wunderground v.1.15,2013-11-08 18:40:00,
2013-11-08 13:45:00,55.3,30.7,30.25,WSW,248,2.0,-999.0,39,0.00,,,0.00,Wunderground v.1.15,2013-11-08 18:45:00,
2013-11-08 13:50:00,55.3,30.7,30.25,WSW,248,2.0,-999.0,39,0.00,,,0.00,Wunderground v.1.15,2013-11-08 18:50:00,
2013-11-08 13:55:00,55.3,30.7,30.25,WSW,248,2.0,-999.0,39,0.00,,,0.00,Wunderground v.1.15,2013-11-08 18:55:00,
2013-11-08 14:00:00,55.3,30.7,30.25,WSW,248,2.0,-999.0,39,0.00,,,0.00,Wunderground v.1.15,2013-11-08 19:00:00,
2013-11-08 14:05:00,55.3,30.7,30.25,WSW,248,2.0,-999.0,39,0.00,,,0.00,Wunderground v.1.15,2013-11-08 19:05:00,
2013-11-08 14:10:00,55.3,30.7,30.25,WSW,248,2.0,-999.0,39,0.00,,,0.00,Wunderground v.1.15,2013-11-08 19:10:00,
2013-11-08 14:15:00,56.0,29.4,30.24,WSW,248,1.0,-999.0,36,0.00,,,0.00,Wunderground v.1.15,2013-11-08 19:15:00,
2013-11-08 14:20:00,56.0,29.4,30.24,WSW,248,1.0,-999.0,36,0.00,,,0.00,Wunderground v.1.15,2013-11-08 19:20:00,
2013-11-08 14:25:00,56.0,29.4,30.24,WSW,248,1.0,-999.0,36,0.00,,,0.00,Wunderground v.1.15,2013-11-08 19:25:00,
2013-11-08 14:30:00,56.0,29.4,30.24,WSW,248,1.0,-999.0,36,0.00,,,0.00,Wunderground v.1.15,2013-11-08 19:30:00,
2013-11-08 14:35:00,56.0,29.4,30.24,WSW,248,1.0,-999.0,36,0.00,,,0.00,Wunderground v.1.15,2013-11-08 19:35:00,
2013-11-08 14:40:00,56.0,29.4,30.24,WSW,248,1.0,-999.0,36,0.00,,,0.00,Wunderground v.1.15,2013-11-08 19:40:00,
2013-11-08 14:45:00,56.5,29.1,30.24,ENE,68,1.0,-999.0,35,0.00,,,0.00,Wunderground v.1.15,2013-11-08 19:45:00,
2013-11-08 14:50:00,56.5,29.1,30.24,ENE,68,1.0,-999.0,35,0.00,,,0.00,Wunderground v.1.15,2013-11-08 19:50:00,
2013-11-08 14:55:00,56.5,29.1,30.24,ENE,68,1.0,-999.0,35,0.00,,,0.00,Wunderground v.1.15,2013-11-08 19:55:00,
2013-11-08 15:00:00,56.5,29.1,30.24,ENE,68,1.0,-999.0,35,0.00,,,0.00,Wunderground v.1.15,2013-11-08 20:00:00,
2013-11-08 15:05:00,56.5,29.1,30.24,ENE,68,1.0,-999.0,35,0.00,,,0.00,Wunderground v.1.15,2013-11-08 20:05:00,
2013-11-08 15:10:00,56.5,29.1,30.24,ENE,68,1.0,-999.0,35,0.00,,,0.00,Wunderground v.1.15,2013-11-08 20:10:00,
2013-11-08 15:15:00,57.2,28.3,30.24,WSW,248,2.0,-999.0,33,0.00,,,0.00,Wunderground v.1.15,2013-11-08 20:15:00,
2013-11-08 15:20:00,57.2,28.3,30.24,WSW,248,2.0,-999.0,33,0.00,,,0.00,Wunderground v.1.15,2013-11-08 20:20:00,
2013-11-08 15:25:00,57.2,28.3,30.24,WSW,248,2.0,-999.0,33,0.00,,,0.00,Wunderground v.1.15,2013-11-08 20:25:00,
2013-11-08 15:30:00,57.2,28.3,30.24,WSW,248,2.0,-999.0,33,0.00,,,0.00,Wunderground v.1.15,2013-11-08 20:30:00,
2013-11-08 15:35:00,57.2,28.3,30.24,WSW,248,2.0,-999.0,33,0.00,,,0.00,Wunderground v.1.15,2013-11-08 20:35:00,
2013-11-08 15:40:00,57.2,28.3,30.24,WSW,248,2.0,-999.0,33,0.00,,,0.00,Wunderground v.1.15,2013-11-08 20:40:00,
2013-11-08 15:45:00,58.2,28.5,30.24,WSW,248,1.0,-999.0,32,0.00,,,0.00,Wunderground v.1.15,2013-11-08 20:45:00,
2013-11-08 15:50:00,58.2,28.5,30.24,WSW,248,1.0,-999.0,32,0.00,,,0.00,Wunderground v.1.15,2013-11-08 20:50:00,
2013-11-08 15:55:00,58.2,28.5,30.24,WSW,248,1.0,-999.0,32,0.00,,,0.00,Wunderground v.1.15,2013-11-08 20:55:00,
2013-11-08 16:00:00,58.2,28.5,30.24,WSW,248,1.0,-999.0,32,0.00,,,0.00,Wunderground v.1.15,2013-11-08 21:00:00,
2013-11-08 16:05:00,58.2,28.5,30.24,WSW,248,1.0,-999.0,32,0.00,,,0.00,Wunderground v.1.15,2013-11-08 21:05:00,
2013-11-08 16:10:00,58.2,28.5,30.24,WSW,248,1.0,-999.0,32,0.00,,,0.00,Wunderground v.1.15,2013-11-08 21:10:00,
2013-11-08 16:15:00,59.2,29.3,30.25,WSW,248,0.0,-999.0,32,0.00,,,0.00,Wunderground v.1.15,2013-11-08 21:15:00,
2013-11-08 16:20:00,59.2,29.3,30.25,WSW,248,0.0,-999.0,32,0.00,,,0.00,Wunderground v.1.15,2013-11-08 21:20:00,
2013-11-08 16:25:00,59.2,29.3,30.25,WSW,248,0.0,-999.0,32,0.00,,,0.00,Wunderground v.1.15,2013-11-08 21:25:00,
2013-11-08 16:30:00,59.2,29.3,30.25,WSW,248,0.0,-999.0,32,0.00,,,0.00,Wunderground v.1.15,2013-11-08 21:30:00,
2013-11-08 16:35:00,59.2,29.3,30.25,WSW,248,0.0,-999.0,32,0.00,,,0.00,Wunderground v.1.15,2013-11-08 21:35:00,
2013-11-08 16:40:00,59.2,29.3,30.25,WSW,248,0.0,-999.0,32,0.00,,,0.00,Wunderground v.1.15,2013-11-08 21:40:00,
2013-11-08 16:45:00,58.7,28.9,30.25,WSW,248,0.0,-999.0,32,0.00,,,0.00,Wunderground v.1.15,2013-11-08 21:45:00,
2013-11-08 16:50:00,58.7,28.9,30.25,WSW,248,0.0,-999.0,32,0.00,,,0.00,Wunderground v.1.15,2013-11-08 21:50:00,
2013-11-08 16:55:00,58.7,28.9,30.25,WSW,248,0.0,-999.0,32,0.00,,,0.00,Wunderground v.1.15,2013-11-08 21:55:00,
2013-11-08 17:00:00,58.7,28.9,30.25,WSW,248,0.0,-999.0,32,0.00,,,0.00,Wunderground v.1.15,2013-11-08 22:00:00,
2013-11-08 17:05:00,58.7,28.9,30.25,WSW,248,0.0,-999.0,32,0.00,,,0.00,Wunderground v.1.15,2013-11-08 22:05:00,
2013-11-08 17:10:00,58.7,28.9,30.25,WSW,248,0.0,-999.0,32,0.00,,,0.00,Wunderground v.1.15,2013-11-08 22:10:00,
2013-11-08 17:15:00,54.1,28.4,30.26,NNE,23,0.0,-999.0,37,0.00,,,0.00,Wunderground v.1.15,2013-11-08 22:15:00,
2013-11-08 17:20:00,54.1,28.4,30.26,NNE,23,0.0,-999.0,37,0.00,,,0.00,Wunderground v.1.15,2013-11-08 22:20:00,
2013-11-08 17:25:00,54.1,28.4,30.26,NNE,23,0.0,-999.0,37,0.00,,,0.00,Wunderground v.1.15,2013-11-08 22:25:00,
2013-11-08 17:30:00,54.1,28.4,30.26,NNE,23,0.0,-999.0,37,0.00,,,0.00,Wunderground v.1.15,2013-11-08 22:30:00,
2013-11-08 17:35:00,54.1,28.4,30.26,NNE,23,0.0,-999.0,37,0.00,,,0.00,Wunderground v.1.15,2013-11-08 22:35:00,
2013-11-08 17:40:00,54.1,28.4,30.26,NNE,23,0.0,-999.0,37,0.00,,,0.00,Wunderground v.1.15,2013-11-08 22:40:00,
2013-11-08 17:45:00,50.6,27.1,30.26,NNE,23,0.0,-999.0,40,0.00,,,0.00,Wunderground v.1.15,2013-11-08 22:45:00,
2013-11-08 17:50:00,50.6,27.1,30.26,NNE,23,0.0,-999.0,40,0.00,,,0.00,Wunderground v.1.15,2013-11-08 22:50:00,
2013-11-08 17:55:00,50.6,27.1,30.26,NNE,23,0.0,-999.0,40,0.00,,,0.00,Wunderground v.1.15,2013-11-08 22:55:00,
2013-11-08 18:00:00,50.6,27.1,30.26,NNE,23,0.0,-999.0,40,0.00,,,0.00,Wunderground v.1.15,2013-11-08 23:00:00,
2013-11-08 18:20:00,49.2,27.6,30.27,NNE,31,0.0,0.0,43,0.00,,,0.00,Wunderground v.1.15,2013-11-08 23:20:00,
2013-11-08 18:25:00,48.8,27.3,30.27,NNE,31,0.0,0.0,43,0.00,,,0.00,Wunderground v.1.15,2013-11-08 23:25:00,
2013-11-08 18:30:00,48.5,28.1,30.27,NNE,31,0.0,0.0,45,0.00,,,0.00,Wunderground v.1.15,2013-11-08 23:30:00,
2013-11-08 18:35:00,48.2,29.4,30.28,NNE,31,0.0,0.0,48,0.00,,,0.00,Wunderground v.1.15,2013-11-08 23:35:00,
2013-11-08 18:40:00,47.8,28.5,30.28,NNE,31,0.0,0.0,47,0.00,,,0.00,Wunderground v.1.15,2013-11-08 23:40:00,
2013-11-08 18:45:00,47.5,28.8,30.29,NNE,31,0.0,0.0,48,0.00,,,0.00,Wunderground v.1.15,2013-11-08 23:45:00,
2013-11-08 18:50:00,47.0,27.8,30.29,NNE,31,0.0,0.0,47,0.00,,,0.00,Wunderground v.1.15,2013-11-08 23:50:00,
2013-11-08 18:55:00,46.8,28.1,30.29,NNE,31,0.0,0.0,48,0.00,,,0.00,Wunderground v.1.15,2013-11-08 23:55:00,
2013-11-08 19:00:00,46.5,28.8,30.28,NNE,31,0.0,0.0,50,0.00,,,0.00,Wunderground v.1.15,2013-11-09 00:00:00,
2013-11-08 19:05:00,46.3,28.7,30.28,NNE,31,0.0,1.0,50,0.00,,,0.00,Wunderground v.1.15,2013-11-09 00:05:00,
2013-11-08 19:15:00,45.8,28.7,30.29,NNE,31,0.0,1.0,51,0.00,,,0.00,Wunderground v.1.15,2013-11-09 00:15:00,
2013-11-08 19:20:00,45.5,28.9,30.29,NNE,31,0.0,1.0,52,0.00,,,0.00,Wunderground v.1.15,2013-11-09 00:20:00,
2013-11-08 19:25:00,45.3,28.7,30.30,NNE,31,0.0,1.0,52,0.00,,,0.00,Wunderground v.1.15,2013-11-09 00:25:00,
2013-11-08 19:30:00,45.1,29.0,30.30,NNE,31,0.0,1.0,53,0.00,,,0.00,Wunderground v.1.15,2013-11-09 00:30:00,
2013-11-08 19:35:00,44.9,28.8,30.29,NNE,31,0.0,1.0,53,0.00,,,0.00,Wunderground v.1.15,2013-11-09 00:35:00,
2013-11-08 19:40:00,44.6,29.0,30.30,NNE,31,0.0,1.0,54,0.00,,,0.00,Wunderground v.1.15,2013-11-09 00:40:00,
2013-11-08 19:45:00,44.4,28.8,30.30,NNE,31,0.0,1.0,54,0.00,,,0.00,Wunderground v.1.15,2013-11-09 00:45:00,
2013-11-08 19:50:00,44.2,28.6,30.30,NNE,31,0.0,1.0,54,0.00,,,0.00,Wunderground v.1.15,2013-11-09 00:50:00,
2013-11-08 20:00:00,43.8,28.2,30.30,NNE,31,0.0,1.0,54,0.00,,,0.00,Wunderground v.1.15,2013-11-09 01:00:00,
2013-11-08 20:05:00,43.7,29.0,30.30,NNE,31,0.0,1.0,56,0.00,,,0.00,Wunderground v.1.15,2013-11-09 01:05:00,
2013-11-08 20:10:00,43.5,28.8,30.30,NNE,31,0.0,1.0,56,0.00,,,0.00,Wunderground v.1.15,2013-11-09 01:10:00,
2013-11-08 20:15:00,43.4,28.7,30.30,NNE,31,0.0,1.0,56,0.00,,,0.00,Wunderground v.1.15,2013-11-09 01:15:00,
2013-11-08 20:20:00,43.2,29.0,30.30,NNE,31,0.0,1.0,57,0.00,,,0.00,Wunderground v.1.15,2013-11-09 01:20:00,
2013-11-08 20:25:00,43.1,28.9,30.30,NNE,31,0.0,1.0,57,0.00,,,0.00,Wunderground v.1.15,2013-11-09 01:25:00,
2013-11-08 20:30:00,43.1,29.3,30.30,NNE,31,0.0,1.0,58,0.00,,,0.00,Wunderground v.1.15,2013-11-09 01:30:00,
2013-11-08 20:35:00,42.9,29.5,30.31,NNE,31,0.0,1.0,59,0.00,,,0.00,Wunderground v.1.15,2013-11-09 01:35:00,
2013-11-08 20:40:00,42.7,29.4,30.31,NNE,31,0.0,1.0,59,0.00,,,0.00,Wunderground v.1.15,2013-11-09 01:40:00,
2013-11-08 20:45:00,42.5,29.6,30.31,NNE,31,0.0,1.0,60,0.00,,,0.00,Wunderground v.1.15,2013-11-09 01:45:00,
2013-11-08 20:50:00,42.4,29.5,30.31,NNE,31,0.0,1.0,60,0.00,,,0.00,Wunderground v.1.15,2013-11-09 01:50:00,
2013-11-08 20:55:00,42.3,29.4,30.32,NNE,31,0.0,1.0,60,0.00,,,0.00,Wunderground v.1.15,2013-11-09 01:55:00,
2013-11-08 21:00:00,42.2,29.7,30.32,NNE,31,0.0,1.0,61,0.00,,,0.00,Wunderground v.1.15,2013-11-09 02:00:00,
2013-11-08 21:05:00,42.1,29.6,30.32,NNE,31,0.0,1.0,61,0.00,,,0.00,Wunderground v.1.15,2013-11-09 02:05:00,
2013-11-08 21:10:00,42.0,29.5,30.32,NNE,31,0.0,1.0,61,0.00,,,0.00,Wunderground v.1.15,2013-11-09 02:10:00,
2013-11-08 21:15:00,41.9,29.0,30.32,NNE,31,0.0,1.0,60,0.00,,,0.00,Wunderground v.1.15,2013-11-09 02:15:00,
2013-11-08 21:20:00,41.9,29.4,30.32,NNE,31,0.0,1.0,61,0.00,,,0.00,Wunderground v.1.15,2013-11-09 02:20:00,
2013-11-08 21:25:00,41.8,29.7,30.32,NNE,31,0.0,1.0,62,0.00,,,0.00,Wunderground v.1.15,2013-11-09 02:25:00,
2013-11-08 21:30:00,41.8,29.7,30.32,NNE,31,0.0,1.0,62,0.00,,,0.00,Wunderground v.1.15,2013-11-09 02:30:00,
2013-11-08 21:35:00,41.7,30.0,30.32,NNE,31,0.0,1.0,63,0.00,,,0.00,Wunderground v.1.15,2013-11-09 02:35:00,
2013-11-08 21:40:00,41.6,29.5,30.33,NNE,31,0.0,1.0,62,0.00,,,0.00,Wunderground v.1.15,2013-11-09 02:40:00,
2013-11-08 21:45:00,41.6,30.3,30.33,NNE,31,0.0,1.0,64,0.00,,,0.00,Wunderground v.1.15,2013-11-09 02:45:00,
2013-11-08 21:50:00,41.4,29.7,30.33,NNE,31,0.0,1.0,63,0.00,,,0.00,Wunderground v.1.15,2013-11-09 02:50:00,
2013-11-08 21:55:00,41.4,30.1,30.33,NNE,31,0.0,1.0,64,0.00,,,0.00,Wunderground v.1.15,2013-11-09 02:55:00,
2013-11-08 22:00:00,41.3,29.6,30.33,NNE,31,0.0,1.0,63,0.00,,,0.00,Wunderground v.1.15,2013-11-09 03:00:00,
2013-11-08 22:05:00,41.4,29.7,30.33,NNE,31,0.0,1.0,63,0.00,,,0.00,Wunderground v.1.15,2013-11-09 03:05:00,
2013-11-08 22:10:00,41.4,29.7,30.33,NNE,31,0.0,1.0,63,0.00,,,0.00,Wunderground v.1.15,2013-11-09 03:10:00,
2013-11-08 22:15:00,41.4,29.7,30.33,NNE,31,0.0,1.0,63,0.00,,,0.00,Wunderground v.1.15,2013-11-09 03:15:00,
2013-11-08 22:20:00,41.4,30.1,30.33,NNE,31,0.0,1.0,64,0.00,,,0.00,Wunderground v.1.15,2013-11-09 03:20:00,
2013-11-08 22:25:00,41.3,30.0,30.33,NNE,31,0.0,1.0,64,0.00,,,0.00,Wunderground v.1.15,2013-11-09 03:25:00,
2013-11-08 22:30:00,41.4,30.5,30.33,NNE,31,0.0,1.0,65,0.00,,,0.00,Wunderground v.1.15,2013-11-09 03:30:00,
2013-11-08 22:35:00,41.4,30.1,30.33,NNE,31,0.0,1.0,64,0.00,,,0.00,Wunderground v.1.15,2013-11-09 03:35:00,
2013-11-08 22:40:00,41.4,30.5,30.33,NNE,31,0.0,1.0,65,0.00,,,0.00,Wunderground v.1.15,2013-11-09 03:40:00,
2013-11-08 22:45:00,41.4,30.5,30.33,NNE,31,0.0,1.0,65,0.00,,,0.00,Wunderground v.1.15,2013-11-09 03:45:00,
2013-11-08 22:50:00,41.4,30.5,30.33,NNE,31,0.0,1.0,65,0.00,,,0.00,Wunderground v.1.15,2013-11-09 03:50:00,
2013-11-08 23:00:00,41.3,30.8,30.33,NNE,23,0.0,-999.0,66,0.00,,,0.00,Wunderground v.1.15,2013-11-09 04:00:00,
2013-11-08 23:05:00,41.3,30.8,30.33,NNE,23,0.0,-999.0,66,0.00,,,0.00,Wunderground v.1.15,2013-11-09 04:05:00,
2013-11-08 23:10:00,41.3,30.8,30.33,NNE,23,0.0,-999.0,66,0.00,,,0.00,Wunderground v.1.15,2013-11-09 04:10:00,
2013-11-08 23:15:00,40.9,30.8,30.33,N/A,-737280,0.0,-999.0,67,0.00,,,0.00,Wunderground v.1.15,2013-11-09 04:15:00,
2013-11-08 23:20:00,40.9,30.8,30.33,N/A,-737280,0.0,-999.0,67,0.00,,,0.00,Wunderground v.1.15,2013-11-09 04:20:00,
2013-11-08 23:25:00,40.9,30.8,30.33,N/A,-737280,0.0,-999.0,67,0.00,,,0.00,Wunderground v.1.15,2013-11-09 04:25:00,
2013-11-08 23:30:00,40.9,30.8,30.33,N/A,-737280,0.0,-999.0,67,0.00,,,0.00,Wunderground v.1.15,2013-11-09 04:30:00,
2013-11-08 23:35:00,40.9,30.8,30.33,N/A,-737280,0.0,-999.0,67,0.00,,,0.00,Wunderground v.1.15,2013-11-09 04:35:00,
2013-11-08 23:40:00,40.9,30.8,30.33,N/A,-737280,0.0,-999.0,67,0.00,,,0.00,Wunderground v.1.15,2013-11-09 04:40:00,
2013-11-08 23:45:00,40.5,31.8,30.33,N/A,-737280,0.0,-999.0,71,0.00,,,0.00,Wunderground v.1.15,2013-11-09 04:45:00,
2013-11-08 23:50:00,40.5,31.8,30.33,N/A,-737280,0.0,-999.0,71,0.00,,,0.00,Wunderground v.1.15,2013-11-09 04:50:00,
2013-11-08 23:55:00,40.5,31.8,30.33,N/A,-737280,0.0,-999.0,71,0.00,,,0.00,Wunderground v.1.15,2013-11-09 04:55:00,